createdAt,value
2022-10-11T00:01:47.469Z,101093.81
2022-10-11T00:04:14.156Z,101096.47
2022-10-11T00:06:43.375Z,101095.63
2022-10-11T00:09:14.759Z,101100.28
2022-10-11T00:11:42.072Z,101105.66
2022-10-11T00:14:08.885Z,101105.66
2022-10-11T00:16:35.681Z,101100.50
2022-10-11T00:19:02.439Z,101101.19
2022-10-11T00:21:30.603Z,101103.91
2022-10-11T00:23:57.331Z,101101.16
2022-10-11T00:26:24.006Z,101100.81
2022-10-11T00:28:52.624Z,101099.78
2022-10-11T00:31:19.498Z,101097.28
2022-10-11T00:33:46.874Z,101102.72
2022-10-11T00:36:16.625Z,101111.75
2022-10-11T00:38:44.642Z,101111.22
2022-10-11T00:41:12.219Z,101108.50
2022-10-11T00:43:38.972Z,101103.34
2022-10-11T00:46:17.703Z,101109.81
2022-10-11T00:49:13.464Z,101109.31
2022-10-11T00:51:52.211Z,101104.94
2022-10-11T00:54:23.230Z,101112.81
2022-10-11T00:56:56.182Z,101107.50
2022-10-11T00:59:29.463Z,101107.66
2022-10-11T01:01:56.710Z,101113.91
2022-10-11T01:04:23.383Z,101110.09
2022-10-11T01:06:51.168Z,101106.94
2022-10-11T01:09:18.968Z,101111.44
2022-10-11T01:11:47.131Z,101107.28
2022-10-11T01:14:38.619Z,101108.84
2022-10-11T01:17:25.077Z,101108.63
2022-10-11T01:20:12.972Z,101108.97
2022-10-11T01:22:57.718Z,101119.81
2022-10-11T01:25:48.288Z,101112.75
2022-10-11T01:28:49.159Z,101115.81
2022-10-11T01:31:32.093Z,101113.66
2022-10-11T01:34:32.859Z,101118.22
2022-10-11T01:37:16.547Z,101118.75
2022-10-11T01:39:51.889Z,101124.31
2022-10-11T01:42:20.088Z,101117.69
2022-10-11T01:44:49.746Z,101123.03
2022-10-11T01:47:23.625Z,101123.06
2022-10-11T01:49:58.906Z,101125.63
2022-10-11T01:52:29.014Z,101139.63
2022-10-11T01:55:28.021Z,101149.47
2022-10-11T01:58:16.138Z,101147.34
2022-10-11T02:01:05.746Z,101147.31
2022-10-11T02:03:59.636Z,101152.84
2022-10-11T02:06:57.367Z,101151.06
2022-10-11T02:09:49.531Z,101158.03
2022-10-11T02:12:37.654Z,101156.06
2022-10-11T02:15:18.575Z,101163.56
2022-10-11T02:18:00.618Z,101162.38
2022-10-11T02:20:41.336Z,101170.69
2022-10-11T02:23:29.687Z,101166.16
2022-10-11T02:26:11.275Z,101174.94
2022-10-11T02:28:53.705Z,101162.53
2022-10-11T02:31:36.054Z,101163.16
2022-10-11T02:34:23.889Z,101164.53
2022-10-11T02:37:21.450Z,101163.78
2022-10-11T02:40:08.292Z,101164.16
2022-10-11T02:42:53.447Z,101165.47
2022-10-11T02:45:44.914Z,101159.75
2022-10-11T02:48:24.149Z,101167.69
2022-10-11T02:51:04.196Z,101163.97
2022-10-11T02:53:41.988Z,101174.25
2022-10-11T02:56:20.058Z,101168.75
2022-10-11T02:58:58.240Z,101165.44
2022-10-11T03:01:36.480Z,101170.41
2022-10-11T03:04:15.276Z,101176.66
2022-10-11T03:06:52.840Z,101175.50
2022-10-11T03:09:31.034Z,101179.56
2022-10-11T03:12:09.377Z,101184.25
2022-10-11T03:14:48.102Z,101177.38
2022-10-11T03:17:41.028Z,101187.50
2022-10-11T03:20:18.653Z,101183.72
2022-10-11T03:22:56.574Z,101186.03
2022-10-11T03:25:34.815Z,101184.78
2022-10-11T03:28:12.913Z,101182.22
2022-10-11T03:30:51.555Z,101184.56
2022-10-11T03:33:33.233Z,101187.38
2022-10-11T03:36:11.066Z,101188.25
2022-10-11T03:38:48.817Z,101189.63
2022-10-11T03:41:26.974Z,101190.13
2022-10-11T03:44:05.597Z,101189.56
2022-10-11T03:46:43.602Z,101181.50
2022-10-11T03:49:22.242Z,101192.09
2022-10-11T03:51:59.841Z,101190.94
2022-10-11T03:54:38.596Z,101193.13
2022-10-11T03:57:16.317Z,101200.50
2022-10-11T03:59:54.359Z,101194.59
2022-10-11T04:02:36.988Z,101198.88
2022-10-11T04:05:17.317Z,101206.72
2022-10-11T04:07:55.504Z,101213.28
2022-10-11T04:10:33.556Z,101219.69
2022-10-11T04:13:12.250Z,101220.91
2022-10-11T04:15:50.098Z,101218.44
2022-10-11T04:18:28.135Z,101225.41
2022-10-11T04:21:06.676Z,101218.91
2022-10-11T04:23:44.635Z,101219.56
2022-10-11T04:26:22.993Z,101228.34
2022-10-11T04:29:00.976Z,101238.91
2022-10-11T04:31:39.184Z,101242.97
2022-10-11T04:34:18.038Z,101237.91
2022-10-11T04:36:55.647Z,101248.03
2022-10-11T04:39:34.712Z,101247.41
2022-10-11T04:42:12.574Z,101257.50
2022-10-11T04:44:50.145Z,101257.06
2022-10-11T04:47:28.493Z,101262.50
2022-10-11T04:50:06.830Z,101260.91
2022-10-11T04:52:44.902Z,101270.81
2022-10-11T04:55:22.975Z,101272.47
2022-10-11T04:58:02.324Z,101279.22
2022-10-11T05:00:39.331Z,101287.66
2022-10-11T05:03:17.532Z,101286.00
2022-10-11T05:05:56.140Z,101288.25
2022-10-11T05:08:34.681Z,101289.06
2022-10-11T05:11:15.985Z,101287.13
2022-10-11T05:13:53.600Z,101297.56
2022-10-11T05:16:32.066Z,101287.94
2022-10-11T05:19:10.304Z,101299.69
2022-10-11T05:21:48.595Z,101302.28
2022-10-11T05:24:26.392Z,101305.78
2022-10-11T05:27:04.489Z,101298.97
2022-10-11T05:29:42.747Z,101313.63
2022-10-11T05:32:21.516Z,101314.47
2022-10-11T05:34:59.124Z,101311.41
2022-10-11T05:37:37.560Z,101322.78
2022-10-11T05:40:15.500Z,101314.94
2022-10-11T05:42:52.457Z,101321.28
2022-10-11T05:45:32.970Z,101334.44
2022-10-11T05:48:10.640Z,101341.91
2022-10-11T05:50:48.344Z,101329.34
2022-10-11T05:53:26.804Z,101335.84
2022-10-11T05:56:05.778Z,101338.16
2022-10-11T05:58:44.742Z,101342.59
2022-10-11T06:01:26.114Z,101340.09
2022-10-11T06:04:05.090Z,101346.13
2022-10-11T06:06:42.288Z,101346.22
2022-10-11T06:09:21.006Z,101356.22
2022-10-11T06:11:58.686Z,101353.84
2022-10-11T06:14:50.645Z,101358.78
2022-10-11T06:17:53.994Z,101373.78
2022-10-11T06:20:49.313Z,101368.03
2022-10-11T06:23:42.153Z,101369.44
2022-10-11T06:26:37.868Z,101367.69
2022-10-11T06:29:41.978Z,101370.75
2022-10-11T06:32:37.554Z,101373.31
2022-10-11T06:35:41.292Z,101373.88
2022-10-11T06:38:37.310Z,101378.00
2022-10-11T06:41:32.789Z,101375.06
2022-10-11T06:44:27.605Z,101376.94
2022-10-11T06:47:19.198Z,101385.16
2022-10-11T06:50:15.350Z,101391.16
2022-10-11T06:53:11.106Z,101392.22
2022-10-11T06:56:21.651Z,101402.66
2022-10-11T06:59:18.056Z,101394.34
2022-10-11T07:02:10.096Z,101405.47
2022-10-11T07:05:01.685Z,101414.81
2022-10-11T07:07:56.279Z,101415.75
2022-10-11T07:10:52.294Z,101423.63
2022-10-11T07:13:51.830Z,101423.91
2022-10-11T07:16:46.965Z,101423.09
2022-10-11T07:19:42.642Z,101425.41
2022-10-11T07:22:35.130Z,101437.06
2022-10-11T07:25:25.825Z,101440.13
2022-10-11T07:28:16.982Z,101443.03
2022-10-11T07:31:17.578Z,101442.25
2022-10-11T07:34:09.033Z,101447.28
2022-10-11T07:37:00.992Z,101444.84
2022-10-11T07:39:51.995Z,101444.03
2022-10-11T07:42:43.017Z,101444.91
2022-10-11T07:45:38.470Z,101446.97
2022-10-11T07:48:39.413Z,101448.31
2022-10-11T07:51:33.256Z,101449.56
2022-10-11T07:54:28.006Z,101450.34
2022-10-11T07:57:36.924Z,101450.16
2022-10-11T08:00:44.085Z,101451.53
2022-10-11T08:03:48.575Z,101457.41
2022-10-11T08:06:53.431Z,101457.66
2022-10-11T08:09:54.637Z,101463.59
2022-10-11T08:12:49.593Z,101464.22
2022-10-11T08:15:50.865Z,101464.94
2022-10-11T08:18:51.375Z,101469.75
2022-10-11T08:21:46.319Z,101469.63
2022-10-11T08:24:49.242Z,101468.22
2022-10-11T08:27:40.783Z,101478.06
2022-10-11T08:30:34.604Z,101484.19
2022-10-11T08:33:26.588Z,101474.09
2022-10-11T08:36:22.160Z,101480.44
2022-10-11T08:39:17.406Z,101474.91
2022-10-11T08:42:40.362Z,101476.31
2022-10-11T08:45:39.052Z,101477.13
2022-10-11T08:48:37.917Z,101484.63
2022-10-11T08:51:41.808Z,101477.03
2022-10-11T08:54:51.561Z,101479.38
2022-10-11T08:57:48.598Z,101486.75
2022-10-11T09:00:41.176Z,101487.47
2022-10-11T09:03:38.529Z,101480.66
2022-10-11T09:06:52.778Z,101483.72
2022-10-11T09:09:55.989Z,101480.63
2022-10-11T09:12:58.796Z,101477.94
2022-10-11T09:15:52.419Z,101476.28
2022-10-11T09:19:09.759Z,101482.50
2022-10-11T09:21:52.629Z,101477.00
2022-10-11T09:24:52.259Z,101478.75
2022-10-11T09:28:01.373Z,101473.53
2022-10-11T09:30:23.489Z,101487.34
2022-10-11T09:33:08.541Z,101487.44
2022-10-11T09:35:42.714Z,101477.97
2022-10-11T09:38:38.464Z,101475.94
2022-10-11T09:41:46.914Z,101477.25
2022-10-11T09:44:22.905Z,101476.81
2022-10-11T09:46:50.893Z,101470.19
2022-10-11T09:49:20.982Z,101470.19
2022-10-11T09:51:53.978Z,101469.63
2022-10-11T09:54:27.514Z,101466.78
2022-10-11T09:56:54.585Z,101458.88
2022-10-11T09:59:30.302Z,101457.22
2022-10-11T10:02:22.461Z,101467.06
2022-10-11T10:05:10.611Z,101455.59
2022-10-11T10:07:40.956Z,101461.94
2022-10-11T10:10:34.277Z,101458.25
2022-10-11T10:13:04.233Z,101457.91
2022-10-11T10:15:34.651Z,101462.38
2022-10-11T10:18:03.149Z,101453.63
2022-10-11T10:20:35.056Z,101450.28
2022-10-11T10:23:21.576Z,101449.84
2022-10-11T10:25:52.115Z,101453.00
2022-10-11T10:28:25.769Z,101455.06
2022-10-11T10:30:59.586Z,101454.03
2022-10-11T10:33:30.978Z,101452.97
2022-10-11T10:36:07.432Z,101448.66
2022-10-11T10:38:40.468Z,101450.34
2022-10-11T10:41:12.988Z,101451.31
2022-10-11T10:43:41.769Z,101453.38
2022-10-11T10:46:11.415Z,101456.34
2022-10-11T10:49:23.594Z,101450.78
2022-10-11T10:52:03.004Z,101449.44
2022-10-11T10:54:55.246Z,101456.22
2022-10-11T10:58:07.224Z,101448.66
2022-10-11T11:00:44.142Z,101440.16
2022-10-11T11:03:35.709Z,101441.16
2022-10-11T11:06:07.000Z,101444.94
2022-10-11T11:09:02.125Z,101444.59
2022-10-11T11:11:41.646Z,101435.66
2022-10-11T11:14:33.559Z,101435.81
2022-10-11T11:17:20.664Z,101434.63
2022-10-11T11:19:59.427Z,101430.47
2022-10-11T11:22:32.929Z,101425.03
2022-10-11T11:25:05.700Z,101430.38
2022-10-11T11:28:01.526Z,101433.00
2022-10-11T11:30:37.262Z,101425.25
2022-10-11T11:33:28.936Z,101422.25
2022-10-11T11:36:01.650Z,101423.44
2022-10-11T11:39:03.321Z,101414.75
2022-10-11T11:41:50.162Z,101414.25
2022-10-11T11:44:25.007Z,101412.66
2022-10-11T11:46:57.628Z,101410.34
2022-10-11T11:49:48.035Z,101402.22
2022-10-11T11:52:28.311Z,101406.91
2022-10-11T11:55:06.428Z,101404.28
2022-10-11T11:57:34.337Z,101403.56
2022-10-11T12:00:15.816Z,101404.38
2022-10-11T12:02:50.820Z,101400.81
2022-10-11T12:05:22.086Z,101394.88
2022-10-11T12:07:54.607Z,101393.19
2022-10-11T12:10:28.483Z,101393.63
2022-10-11T12:13:22.028Z,101392.19
2022-10-11T12:16:00.019Z,101385.63
2022-10-11T12:18:28.012Z,101388.94
2022-10-11T12:21:26.629Z,101380.06
2022-10-11T12:24:33.728Z,101376.75
2022-10-11T12:27:41.545Z,101379.31
2022-10-11T12:30:48.238Z,101373.56
2022-10-11T12:33:25.258Z,101370.97
2022-10-11T12:35:54.773Z,101369.25
2022-10-11T12:38:39.658Z,101367.34
2022-10-11T12:41:09.245Z,101367.22
2022-10-11T12:43:51.517Z,101366.56
2022-10-11T12:46:31.085Z,101360.13
2022-10-11T12:49:26.648Z,101357.50
2022-10-11T12:52:17.854Z,101349.13
2022-10-11T12:55:07.334Z,101350.44
2022-10-11T12:58:08.693Z,101348.19
2022-10-11T13:00:50.513Z,101344.78
2022-10-11T13:03:22.845Z,101356.09
2022-10-11T13:05:53.631Z,101349.59
2022-10-11T13:08:35.443Z,101347.03
2022-10-11T13:11:05.653Z,101350.13
2022-10-11T13:13:43.788Z,101349.09
2022-10-11T13:16:20.727Z,101342.59
2022-10-11T13:18:49.907Z,101340.91
2022-10-11T13:21:36.155Z,101343.06
2022-10-11T13:24:12.328Z,101346.66
2022-10-11T13:26:39.374Z,101348.06
2022-10-11T13:29:18.488Z,101340.69
2022-10-11T13:31:47.283Z,101343.13
2022-10-11T13:34:16.011Z,101333.84
2022-10-11T13:36:43.882Z,101329.94
2022-10-11T13:39:31.257Z,101327.00
2022-10-11T13:42:00.104Z,101331.69
2022-10-11T13:44:27.193Z,101327.22
2022-10-11T13:46:54.408Z,101325.38
2022-10-11T13:49:53.173Z,101327.38
2022-10-11T13:52:22.789Z,101332.88
2022-10-11T13:55:14.653Z,101332.91
2022-10-11T13:57:44.731Z,101317.97
2022-10-11T14:00:14.576Z,101318.56
2022-10-11T14:02:51.670Z,101320.44
2022-10-11T14:05:25.886Z,101308.16
2022-10-11T14:07:53.426Z,101313.66
2022-10-11T14:10:23.459Z,101320.72
2022-10-11T14:13:06.173Z,101321.47
2022-10-11T14:15:37.958Z,101312.44
2022-10-11T14:18:41.830Z,101325.31
2022-10-11T14:21:20.295Z,101321.72
2022-10-11T14:23:55.275Z,101319.22
2022-10-11T14:26:24.206Z,101318.72
2022-10-11T14:28:57.804Z,101311.97
2022-10-11T14:31:28.498Z,101310.34
2022-10-11T14:33:55.818Z,101310.59
2022-10-11T14:36:23.006Z,101319.31
2022-10-11T14:38:50.908Z,101320.72
2022-10-11T14:41:18.181Z,101315.59
2022-10-11T14:43:44.889Z,101311.22
2022-10-11T14:46:24.552Z,101312.59
2022-10-11T14:48:55.442Z,101315.31
2022-10-11T14:51:29.417Z,101320.22
2022-10-11T14:53:56.150Z,101314.53
2022-10-11T14:56:23.095Z,101314.53
2022-10-11T14:58:50.068Z,101313.19
2022-10-11T15:01:17.557Z,101316.97
2022-10-11T15:03:44.325Z,101315.03
2022-10-11T15:06:18.234Z,101305.19
2022-10-11T15:08:45.348Z,101318.50
2022-10-11T15:11:14.296Z,101312.22
2022-10-11T15:13:41.087Z,101310.06
2022-10-11T15:16:08.317Z,101307.50
2022-10-11T15:18:35.170Z,101306.69
2022-10-11T15:21:01.821Z,101307.66
2022-10-11T15:23:28.759Z,101298.34
2022-10-11T15:25:55.572Z,101313.28
2022-10-11T15:28:31.302Z,101302.09
2022-10-11T15:31:00.546Z,101307.91
2022-10-11T15:33:27.305Z,101302.53
2022-10-11T15:35:54.010Z,101311.31
2022-10-11T15:38:23.861Z,101302.91
2022-10-11T15:40:51.401Z,101302.47
2022-10-11T15:43:24.244Z,101296.88
2022-10-11T15:45:51.340Z,101301.31
2022-10-11T15:48:19.131Z,101305.94
2022-10-11T15:50:52.212Z,101300.09
2022-10-11T15:53:25.686Z,101306.97
2022-10-11T15:55:54.396Z,101303.50
2022-10-11T15:58:26.312Z,101308.88
2022-10-11T16:00:56.455Z,101300.25
2022-10-11T16:03:25.640Z,101307.88
2022-10-11T16:05:53.219Z,101296.38
2022-10-11T16:08:20.363Z,101308.53
2022-10-11T16:10:47.489Z,101307.22
2022-10-11T16:13:16.468Z,101304.78
2022-10-11T16:15:44.356Z,101306.06
2022-10-11T16:18:14.347Z,101302.94
2022-10-11T16:20:43.259Z,101305.25
2022-10-11T16:23:10.454Z,101307.09
2022-10-11T16:25:38.105Z,101306.19
2022-10-11T16:28:07.852Z,101310.59
2022-10-11T16:30:38.563Z,101309.81
2022-10-11T16:33:05.446Z,101311.56
2022-10-11T16:35:32.735Z,101313.38
2022-10-11T16:38:01.022Z,101314.66
2022-10-11T16:40:29.752Z,101311.50
2022-10-11T16:42:56.604Z,101316.28
2022-10-11T16:45:23.545Z,101314.56
2022-10-11T16:47:50.333Z,101319.06
2022-10-11T16:50:17.264Z,101309.69
2022-10-11T16:52:44.010Z,101309.88
2022-10-11T16:55:11.494Z,101313.56
2022-10-11T16:57:38.193Z,101310.63
2022-10-11T17:00:07.346Z,101317.38
2022-10-11T17:02:35.008Z,101312.91
2022-10-11T17:05:02.616Z,101315.44
2022-10-11T17:07:31.416Z,101314.13
2022-10-11T17:09:59.074Z,101308.56
2022-10-11T17:12:25.858Z,101314.22
2022-10-11T17:14:53.427Z,101310.78
2022-10-11T17:17:21.150Z,101311.97
2022-10-11T17:19:50.777Z,101304.78
2022-10-11T17:22:19.586Z,101316.53
2022-10-11T17:24:46.666Z,101306.53
2022-10-11T17:27:15.673Z,101308.22
2022-10-11T17:29:42.561Z,101306.84
2022-10-11T17:32:09.182Z,101303.22
2022-10-11T17:34:36.038Z,101310.63
2022-10-11T17:37:03.144Z,101306.63
2022-10-11T17:39:30.059Z,101309.81
2022-10-11T17:41:57.044Z,101305.66
2022-10-11T17:44:23.843Z,101313.97
2022-10-11T17:46:50.628Z,101311.00
2022-10-11T17:49:17.860Z,101309.63
2022-10-11T17:51:45.941Z,101316.78
2022-10-11T17:54:12.990Z,101317.97
2022-10-11T17:56:41.539Z,101323.06
2022-10-11T17:59:15.013Z,101315.19
2022-10-11T18:01:41.897Z,101319.53
2022-10-11T18:04:16.162Z,101318.22
2022-10-11T18:06:45.159Z,101316.91
2022-10-11T18:09:13.596Z,101318.19
2022-10-11T18:11:40.519Z,101317.00
2022-10-11T18:14:07.662Z,101321.19
2022-10-11T18:16:35.712Z,101325.63
2022-10-11T18:19:06.022Z,101320.38
2022-10-11T18:21:34.858Z,101327.09
2022-10-11T18:24:05.029Z,101327.97
2022-10-11T18:26:31.836Z,101320.22
2022-10-11T18:28:58.989Z,101314.69
2022-10-11T18:31:29.403Z,101318.63
2022-10-11T18:33:56.873Z,101321.75
2022-10-11T18:36:26.784Z,101321.19
2022-10-11T18:38:56.008Z,101318.41
2022-10-11T18:41:24.716Z,101318.66
2022-10-11T18:43:54.829Z,101319.66
2022-10-11T18:46:23.869Z,101323.63
2022-10-11T18:48:53.346Z,101334.25
2022-10-11T18:51:23.724Z,101332.44
2022-10-11T18:53:51.649Z,101335.72
2022-10-11T18:56:21.442Z,101329.50
2022-10-11T18:58:50.070Z,101330.78
2022-10-11T19:01:21.817Z,101332.44
2022-10-11T19:03:53.779Z,101332.84
2022-10-11T19:06:23.386Z,101332.19
2022-10-11T19:09:10.375Z,101330.31
2022-10-11T19:11:38.227Z,101330.75
2022-10-11T19:14:11.392Z,101331.00
2022-10-11T19:16:41.772Z,101333.28
2022-10-11T19:19:10.021Z,101320.81
2022-10-11T19:21:37.065Z,101323.59
2022-10-11T19:24:04.230Z,101320.31
2022-10-11T19:26:33.725Z,101328.28
2022-10-11T19:29:12.178Z,101328.19
2022-10-11T19:31:48.061Z,101325.41
2022-10-11T19:34:15.318Z,101332.47
2022-10-11T19:36:43.680Z,101321.97
2022-10-11T19:39:13.999Z,101327.47
2022-10-11T19:41:41.879Z,101327.38
2022-10-11T19:44:08.779Z,101325.34
2022-10-11T19:46:51.011Z,101323.03
2022-10-11T19:49:22.503Z,101326.16
2022-10-11T19:51:50.845Z,101329.69
2022-10-11T19:54:18.038Z,101327.53
2022-10-11T19:56:44.898Z,101318.09
2022-10-11T19:59:12.859Z,101320.75
2022-10-11T20:01:40.243Z,101326.78
2022-10-11T20:04:12.898Z,101318.75
2022-10-11T20:06:49.501Z,101325.97
2022-10-11T20:09:29.172Z,101331.97
2022-10-11T20:11:56.474Z,101329.19
2022-10-11T20:14:23.279Z,101326.53
2022-10-11T20:16:50.931Z,101331.13
2022-10-11T20:19:17.932Z,101330.00
2022-10-11T20:21:45.047Z,101331.50
2022-10-11T20:24:12.002Z,101341.63
2022-10-11T20:26:39.257Z,101347.22
2022-10-11T20:29:06.552Z,101337.63
2022-10-11T20:31:34.637Z,101336.88
2022-10-11T20:34:04.827Z,101340.72
2022-10-11T20:36:32.118Z,101337.69
2022-10-11T20:38:59.793Z,101334.47
2022-10-11T20:41:28.812Z,101333.66
2022-10-11T20:43:56.649Z,101328.81
2022-10-11T20:46:25.167Z,101334.34
2022-10-11T20:49:01.321Z,101336.38
2022-10-11T20:51:30.343Z,101342.56
2022-10-11T20:53:58.019Z,101336.13
2022-10-11T20:56:25.000Z,101348.06
2022-10-11T20:58:52.999Z,101343.50
2022-10-11T21:01:23.198Z,101345.13
2022-10-11T21:03:50.355Z,101344.06
2022-10-11T21:06:17.293Z,101342.97
2022-10-11T21:08:44.288Z,101341.59
2022-10-11T21:11:11.700Z,101340.13
2022-10-11T21:13:38.404Z,101344.03
2022-10-11T21:16:07.910Z,101344.63
2022-10-11T21:18:34.509Z,101345.66
2022-10-11T21:21:11.906Z,101343.28
2022-10-11T21:23:39.456Z,101335.19
2022-10-11T21:26:14.107Z,101336.66
2022-10-11T21:28:41.234Z,101329.56
2022-10-11T21:31:10.202Z,101330.84
2022-10-11T21:33:37.824Z,101331.41
2022-10-11T21:36:06.166Z,101332.41
2022-10-11T21:38:33.695Z,101331.19
2022-10-11T21:41:07.044Z,101326.72
2022-10-11T21:43:35.906Z,101328.66
2022-10-11T21:46:10.702Z,101325.84
2022-10-11T21:48:37.668Z,101336.97
2022-10-11T21:51:04.612Z,101326.91
2022-10-11T21:53:31.611Z,101330.19
2022-10-11T21:55:59.112Z,101329.13
2022-10-11T21:58:26.153Z,101326.19
2022-10-11T22:00:53.179Z,101325.94
2022-10-11T22:03:20.142Z,101321.13
2022-10-11T22:05:47.087Z,101316.56
2022-10-11T22:08:14.810Z,101316.78
2022-10-11T22:11:00.711Z,101317.69
2022-10-11T22:13:29.374Z,101313.97
2022-10-11T22:15:56.297Z,101308.25
2022-10-11T22:18:25.971Z,101306.91
2022-10-11T22:20:52.783Z,101312.56
2022-10-11T22:23:19.444Z,101308.69
2022-10-11T22:25:46.391Z,101308.59
2022-10-11T22:28:13.392Z,101307.28
2022-10-11T22:30:40.171Z,101302.69
2022-10-11T22:33:07.473Z,101292.88
2022-10-11T22:35:37.711Z,101299.91
2022-10-11T22:38:06.563Z,101296.16
2022-10-11T22:40:33.289Z,101294.88
2022-10-11T22:42:59.881Z,101302.81
2022-10-11T22:45:26.896Z,101293.09
2022-10-11T22:47:53.465Z,101284.19
2022-10-11T22:50:20.059Z,101286.19
2022-10-11T22:52:47.182Z,101292.66
2022-10-11T22:55:18.997Z,101296.41
2022-10-11T22:57:47.641Z,101295.22
2022-10-11T23:00:14.828Z,101293.00
2022-10-11T23:02:41.483Z,101292.28
2022-10-11T23:05:08.211Z,101291.22
2022-10-11T23:07:35.245Z,101293.31
2022-10-11T23:10:02.048Z,101282.91
2022-10-11T23:12:30.377Z,101284.97
2022-10-11T23:14:56.930Z,101283.34
2022-10-11T23:17:23.596Z,101285.69
2022-10-11T23:19:50.176Z,101282.41
2022-10-11T23:22:16.747Z,101279.91
2022-10-11T23:24:43.754Z,101289.31
2022-10-11T23:27:10.669Z,101283.13
2022-10-11T23:29:40.946Z,101286.09
2022-10-11T23:32:08.891Z,101286.28
2022-10-11T23:34:35.657Z,101276.88
2022-10-11T23:37:03.223Z,101282.97
2022-10-11T23:39:31.735Z,101284.91
2022-10-11T23:41:58.422Z,101272.41
2022-10-11T23:44:25.116Z,101270.56
2022-10-11T23:46:52.053Z,101275.38
2022-10-11T23:49:18.652Z,101277.91
2022-10-11T23:51:45.261Z,101278.19
2022-10-11T23:54:11.886Z,101270.13
2022-10-11T23:56:38.560Z,101273.63
2022-10-11T23:59:05.422Z,101273.16
